sensor_id;sensor_type;location;lat;lon;timestamp;temperature;humidity
66422;DHT22;53228;51.380;0.098;2022-11-12T00:00:04;10.90;99.90
66422;DHT22;53228;51.380;0.098;2022-11-12T00:02:53;10.90;99.90
66422;DHT22;53228;51.380;0.098;2022-11-12T00:05:39;10.80;99.90
66422;DHT22;53228;51.380;0.098;2022-11-12T00:08:28;10.80;99.90
66422;DHT22;53228;51.380;0.098;2022-11-12T00:11:15;10.80;99.90
66422;DHT22;53228;51.380;0.098;2022-11-12T00:14:02;10.80;99.90
66422;DHT22;53228;51.380;0.098;2022-11-12T00:16:50;10.80;99.90
66422;DHT22;53228;51.380;0.098;2022-11-12T00:19:41;10.80;99.90
66422;DHT22;53228;51.380;0.098;2022-11-12T00:22:31;10.70;99.90
66422;DHT22;53228;51.380;0.098;2022-11-12T00:25:20;10.70;99.90
66422;DHT22;53228;51.380;0.098;2022-11-12T00:28:10;10.60;99.90
66422;DHT22;53228;51.380;0.098;2022-11-12T00:30:59;10.60;99.90
66422;DHT22;53228;51.380;0.098;2022-11-12T00:33:53;10.70;99.90
66422;DHT22;53228;51.380;0.098;2022-11-12T00:36:42;10.70;99.90
66422;DHT22;53228;51.380;0.098;2022-11-12T00:39:29;10.80;99.90
66422;DHT22;53228;51.380;0.098;2022-11-12T00:42:18;10.90;99.90
66422;DHT22;53228;51.380;0.098;2022-11-12T00:45:06;10.90;99.90
66422;DHT22;53228;51.380;0.098;2022-11-12T00:47:55;11.00;99.90
66422;DHT22;53228;51.380;0.098;2022-11-12T00:50:42;11.10;99.90
66422;DHT22;53228;51.380;0.098;2022-11-12T00:53:31;11.20;99.90
66422;DHT22;53228;51.380;0.098;2022-11-12T00:56:17;11.20;99.90
66422;DHT22;53228;51.380;0.098;2022-11-12T00:59:06;11.30;99.90
66422;DHT22;53228;51.380;0.098;2022-11-12T01:01:55;11.30;99.90
66422;DHT22;53228;51.380;0.098;2022-11-12T01:04:44;11.40;99.90
66422;DHT22;53228;51.380;0.098;2022-11-12T01:07:31;11.40;99.90
66422;DHT22;53228;51.380;0.098;2022-11-12T01:10:18;11.50;99.90
66422;DHT22;53228;51.380;0.098;2022-11-12T01:13:04;11.50;99.90
66422;DHT22;53228;51.380;0.098;2022-11-12T01:15:51;11.50;99.90
66422;DHT22;53228;51.380;0.098;2022-11-12T01:18:44;11.50;99.90
66422;DHT22;53228;51.380;0.098;2022-11-12T01:21:37;11.50;99.90
66422;DHT22;53228;51.380;0.098;2022-11-12T01:24:24;11.50;99.90
66422;DHT22;53228;51.380;0.098;2022-11-12T01:27:11;11.50;99.90
66422;DHT22;53228;51.380;0.098;2022-11-12T01:29:58;11.50;99.90
66422;DHT22;53228;51.380;0.098;2022-11-12T01:32:47;11.50;99.90
66422;DHT22;53228;51.380;0.098;2022-11-12T01:35:36;11.60;99.90
66422;DHT22;53228;51.380;0.098;2022-11-12T01:38:25;11.60;99.90
66422;DHT22;53228;51.380;0.098;2022-11-12T01:41:18;11.60;99.90
66422;DHT22;53228;51.380;0.098;2022-11-12T01:47:20;11.70;99.90
66422;DHT22;53228;51.380;0.098;2022-11-12T01:50:17;11.70;99.90
66422;DHT22;53228;51.380;0.098;2022-11-12T01:53:09;11.70;99.90
66422;DHT22;53228;51.380;0.098;2022-11-12T01:56:02;11.70;99.90
66422;DHT22;53228;51.380;0.098;2022-11-12T01:58:59;11.70;99.90
66422;DHT22;53228;51.380;0.098;2022-11-12T02:01:48;11.70;99.90
66422;DHT22;53228;51.380;0.098;2022-11-12T02:04:36;11.70;99.90
66422;DHT22;53228;51.380;0.098;2022-11-12T02:07:26;11.70;99.90
66422;DHT22;53228;51.380;0.098;2022-11-12T02:10:13;11.80;99.90
66422;DHT22;53228;51.380;0.098;2022-11-12T02:13:01;11.70;99.90
66422;DHT22;53228;51.380;0.098;2022-11-12T02:16:10;11.70;99.90
66422;DHT22;53228;51.380;0.098;2022-11-12T02:18:57;11.70;99.90
66422;DHT22;53228;51.380;0.098;2022-11-12T02:21:46;11.70;99.90
66422;DHT22;53228;51.380;0.098;2022-11-12T02:24:33;11.70;99.90
66422;DHT22;53228;51.380;0.098;2022-11-12T02:27:21;11.70;99.90
66422;DHT22;53228;51.380;0.098;2022-11-12T02:30:12;11.70;99.90
66422;DHT22;53228;51.380;0.098;2022-11-12T02:33:01;11.60;99.90
66422;DHT22;53228;51.380;0.098;2022-11-12T02:35:49;11.70;99.90
66422;DHT22;53228;51.380;0.098;2022-11-12T02:38:36;11.60;99.90
66422;DHT22;53228;51.380;0.098;2022-11-12T02:41:23;11.60;99.90
66422;DHT22;53228;51.380;0.098;2022-11-12T02:44:10;11.50;99.90
66422;DHT22;53228;51.380;0.098;2022-11-12T02:46:58;11.40;99.90
66422;DHT22;53228;51.380;0.098;2022-11-12T02:49:45;11.30;99.90
66422;DHT22;53228;51.380;0.098;2022-11-12T02:52:32;11.20;99.90
66422;DHT22;53228;51.380;0.098;2022-11-12T02:55:20;11.10;99.90
66422;DHT22;53228;51.380;0.098;2022-11-12T02:58:07;11.00;99.90
66422;DHT22;53228;51.380;0.098;2022-11-12T03:00:54;10.90;99.90
66422;DHT22;53228;51.380;0.098;2022-11-12T03:03:45;10.80;99.90
66422;DHT22;53228;51.380;0.098;2022-11-12T03:06:32;10.70;99.90
66422;DHT22;53228;51.380;0.098;2022-11-12T03:09:18;10.70;99.90
66422;DHT22;53228;51.380;0.098;2022-11-12T03:12:07;10.60;99.90
66422;DHT22;53228;51.380;0.098;2022-11-12T03:14:53;10.50;99.90
66422;DHT22;53228;51.380;0.098;2022-11-12T03:17:39;10.40;99.90
66422;DHT22;53228;51.380;0.098;2022-11-12T03:20:31;10.40;99.90
66422;DHT22;53228;51.380;0.098;2022-11-12T03:23:22;10.40;99.90
66422;DHT22;53228;51.380;0.098;2022-11-12T03:26:09;10.40;99.90
66422;DHT22;53228;51.380;0.098;2022-11-12T03:29:00;10.30;99.90
66422;DHT22;53228;51.380;0.098;2022-11-12T03:31:47;10.30;99.90
66422;DHT22;53228;51.380;0.098;2022-11-12T03:34:33;10.30;99.90
66422;DHT22;53228;51.380;0.098;2022-11-12T03:37:20;10.20;99.90
66422;DHT22;53228;51.380;0.098;2022-11-12T03:40:09;10.20;99.90
66422;DHT22;53228;51.380;0.098;2022-11-12T03:42:58;10.10;99.90
66422;DHT22;53228;51.380;0.098;2022-11-12T03:45:45;10.00;99.90
66422;DHT22;53228;51.380;0.098;2022-11-12T03:48:31;10.00;99.90
66422;DHT22;53228;51.380;0.098;2022-11-12T03:51:18;10.00;99.90
66422;DHT22;53228;51.380;0.098;2022-11-12T03:54:07;10.00;99.90
66422;DHT22;53228;51.380;0.098;2022-11-12T03:56:54;9.90;99.90
66422;DHT22;53228;51.380;0.098;2022-11-12T03:59:43;10.00;99.90
66422;DHT22;53228;51.380;0.098;2022-11-12T04:02:29;9.90;99.90
66422;DHT22;53228;51.380;0.098;2022-11-12T04:05:16;10.00;99.90
66422;DHT22;53228;51.380;0.098;2022-11-12T04:08:23;10.00;99.90
66422;DHT22;53228;51.380;0.098;2022-11-12T04:11:22;10.00;99.90
66422;DHT22;53228;51.380;0.098;2022-11-12T04:14:09;10.00;99.90
66422;DHT22;53228;51.380;0.098;2022-11-12T04:16:55;9.90;99.90
66422;DHT22;53228;51.380;0.098;2022-11-12T04:20:01;9.90;99.90
66422;DHT22;53228;51.380;0.098;2022-11-12T04:23:07;9.80;99.90
66422;DHT22;53228;51.380;0.098;2022-11-12T04:25:56;9.80;99.90
66422;DHT22;53228;51.380;0.098;2022-11-12T04:29:01;9.70;99.90
66422;DHT22;53228;51.380;0.098;2022-11-12T04:32:06;9.60;99.90
66422;DHT22;53228;51.380;0.098;2022-11-12T04:34:53;9.50;99.90
66422;DHT22;53228;51.380;0.098;2022-11-12T04:37:42;9.50;99.90
66422;DHT22;53228;51.380;0.098;2022-11-12T04:40:34;9.30;99.90
66422;DHT22;53228;51.380;0.098;2022-11-12T04:43:40;9.20;99.90
66422;DHT22;53228;51.380;0.098;2022-11-12T04:46:45;9.10;99.90
66422;DHT22;53228;51.380;0.098;2022-11-12T04:49:31;9.00;99.90
66422;DHT22;53228;51.380;0.098;2022-11-12T04:52:20;8.90;99.90
66422;DHT22;53228;51.380;0.098;2022-11-12T04:55:07;8.80;99.90
66422;DHT22;53228;51.380;0.098;2022-11-12T04:57:53;8.80;99.90
66422;DHT22;53228;51.380;0.098;2022-11-12T05:00:46;8.70;99.90
66422;DHT22;53228;51.380;0.098;2022-11-12T05:03:34;8.70;99.90
66422;DHT22;53228;51.380;0.098;2022-11-12T05:06:20;8.70;99.90
66422;DHT22;53228;51.380;0.098;2022-11-12T05:09:27;8.70;99.90
66422;DHT22;53228;51.380;0.098;2022-11-12T05:12:14;8.90;99.90
66422;DHT22;53228;51.380;0.098;2022-11-12T05:15:01;9.00;99.90
66422;DHT22;53228;51.380;0.098;2022-11-12T05:17:50;9.10;99.90
66422;DHT22;53228;51.380;0.098;2022-11-12T05:20:38;9.30;99.90
66422;DHT22;53228;51.380;0.098;2022-11-12T05:23:25;9.40;99.90
66422;DHT22;53228;51.380;0.098;2022-11-12T05:26:14;9.50;99.90
66422;DHT22;53228;51.380;0.098;2022-11-12T05:29:00;9.70;99.90
66422;DHT22;53228;51.380;0.098;2022-11-12T05:31:55;9.80;99.90
66422;DHT22;53228;51.380;0.098;2022-11-12T05:34:44;9.80;99.90
66422;DHT22;53228;51.380;0.098;2022-11-12T05:37:31;10.00;99.90
66422;DHT22;53228;51.380;0.098;2022-11-12T05:40:17;9.90;99.90
66422;DHT22;53228;51.380;0.098;2022-11-12T05:43:03;10.00;99.90
66422;DHT22;53228;51.380;0.098;2022-11-12T05:45:50;10.10;99.90
66422;DHT22;53228;51.380;0.098;2022-11-12T05:48:36;10.10;99.90
66422;DHT22;53228;51.380;0.098;2022-11-12T05:51:25;10.20;99.90
66422;DHT22;53228;51.380;0.098;2022-11-12T05:54:12;10.20;99.90
66422;DHT22;53228;51.380;0.098;2022-11-12T05:56:59;10.30;99.90
66422;DHT22;53228;51.380;0.098;2022-11-12T05:59:45;10.30;99.90
66422;DHT22;53228;51.380;0.098;2022-11-12T06:02:32;10.30;99.90
66422;DHT22;53228;51.380;0.098;2022-11-12T06:05:18;10.40;99.90
66422;DHT22;53228;51.380;0.098;2022-11-12T06:08:05;10.40;99.90
66422;DHT22;53228;51.380;0.098;2022-11-12T06:10:53;10.40;99.90
66422;DHT22;53228;51.380;0.098;2022-11-12T06:13:39;10.40;99.90
66422;DHT22;53228;51.380;0.098;2022-11-12T06:16:28;10.50;99.90
66422;DHT22;53228;51.380;0.098;2022-11-12T06:19:15;10.50;99.90
66422;DHT22;53228;51.380;0.098;2022-11-12T06:22:03;10.50;99.90
66422;DHT22;53228;51.380;0.098;2022-11-12T06:24:51;10.50;99.90
66422;DHT22;53228;51.380;0.098;2022-11-12T06:27:37;10.50;99.90
66422;DHT22;53228;51.380;0.098;2022-11-12T06:30:24;10.50;99.90
66422;DHT22;53228;51.380;0.098;2022-11-12T06:33:10;10.50;99.90
66422;DHT22;53228;51.380;0.098;2022-11-12T06:36:02;10.50;99.90
66422;DHT22;53228;51.380;0.098;2022-11-12T06:38:50;10.50;99.90
66422;DHT22;53228;51.380;0.098;2022-11-12T06:41:36;10.50;99.90
66422;DHT22;53228;51.380;0.098;2022-11-12T06:44:25;10.50;99.90
66422;DHT22;53228;51.380;0.098;2022-11-12T06:47:15;10.60;99.90
66422;DHT22;53228;51.380;0.098;2022-11-12T06:50:01;10.60;99.90
66422;DHT22;53228;51.380;0.098;2022-11-12T06:52:50;10.60;99.90
66422;DHT22;53228;51.380;0.098;2022-11-12T06:55:36;10.60;99.90
66422;DHT22;53228;51.380;0.098;2022-11-12T06:58:24;10.60;99.90
66422;DHT22;53228;51.380;0.098;2022-11-12T07:01:15;10.60;99.90
66422;DHT22;53228;51.380;0.098;2022-11-12T07:04:02;10.60;99.90
66422;DHT22;53228;51.380;0.098;2022-11-12T07:06:49;10.60;99.90
66422;DHT22;53228;51.380;0.098;2022-11-12T07:09:35;10.60;99.90
66422;DHT22;53228;51.380;0.098;2022-11-12T07:12:22;10.60;99.90
66422;DHT22;53228;51.380;0.098;2022-11-12T07:15:09;10.60;99.90
66422;DHT22;53228;51.380;0.098;2022-11-12T07:17:56;10.60;99.90
66422;DHT22;53228;51.380;0.098;2022-11-12T07:20:42;10.60;99.90
66422;DHT22;53228;51.380;0.098;2022-11-12T07:23:30;10.60;99.90
66422;DHT22;53228;51.380;0.098;2022-11-12T07:26:19;10.60;99.90
66422;DHT22;53228;51.380;0.098;2022-11-12T07:29:08;10.60;99.90
66422;DHT22;53228;51.380;0.098;2022-11-12T07:31:54;10.60;99.90
66422;DHT22;53228;51.380;0.098;2022-11-12T07:34:43;10.70;99.90
66422;DHT22;53228;51.380;0.098;2022-11-12T07:37:29;10.60;99.90
66422;DHT22;53228;51.380;0.098;2022-11-12T07:40:16;10.60;99.90
66422;DHT22;53228;51.380;0.098;2022-11-12T07:43:03;10.60;99.90
66422;DHT22;53228;51.380;0.098;2022-11-12T07:45:55;10.70;99.90
66422;DHT22;53228;51.380;0.098;2022-11-12T07:48:42;10.70;99.90
66422;DHT22;53228;51.380;0.098;2022-11-12T07:51:29;10.70;99.90
66422;DHT22;53228;51.380;0.098;2022-11-12T07:54:16;10.70;99.90
66422;DHT22;53228;51.380;0.098;2022-11-12T07:57:03;10.70;99.90
66422;DHT22;53228;51.380;0.098;2022-11-12T07:59:54;10.80;99.90
66422;DHT22;53228;51.380;0.098;2022-11-12T08:02:40;10.80;99.90
66422;DHT22;53228;51.380;0.098;2022-11-12T08:05:32;10.80;99.90
66422;DHT22;53228;51.380;0.098;2022-11-12T08:08:19;10.80;99.90
66422;DHT22;53228;51.380;0.098;2022-11-12T08:11:07;10.80;99.90
66422;DHT22;53228;51.380;0.098;2022-11-12T08:13:54;10.80;99.90
66422;DHT22;53228;51.380;0.098;2022-11-12T08:16:45;10.90;99.90
66422;DHT22;53228;51.380;0.098;2022-11-12T08:19:35;10.90;99.90
66422;DHT22;53228;51.380;0.098;2022-11-12T08:22:24;10.90;99.90
66422;DHT22;53228;51.380;0.098;2022-11-12T08:25:10;10.90;99.90
66422;DHT22;53228;51.380;0.098;2022-11-12T08:27:57;11.00;99.90
66422;DHT22;53228;51.380;0.098;2022-11-12T08:30:44;11.00;99.90
66422;DHT22;53228;51.380;0.098;2022-11-12T08:33:31;11.00;99.90
66422;DHT22;53228;51.380;0.098;2022-11-12T08:36:17;11.00;99.90
66422;DHT22;53228;51.380;0.098;2022-11-12T08:39:05;11.10;99.90
66422;DHT22;53228;51.380;0.098;2022-11-12T08:41:51;11.10;99.90
66422;DHT22;53228;51.380;0.098;2022-11-12T08:44:40;11.10;99.90
66422;DHT22;53228;51.380;0.098;2022-11-12T08:47:30;11.20;99.90
66422;DHT22;53228;51.380;0.098;2022-11-12T08:50:17;11.20;99.90
66422;DHT22;53228;51.380;0.098;2022-11-12T08:53:09;11.20;99.90
66422;DHT22;53228;51.380;0.098;2022-11-12T08:55:56;11.30;99.90
66422;DHT22;53228;51.380;0.098;2022-11-12T08:58:46;11.30;99.90
66422;DHT22;53228;51.380;0.098;2022-11-12T09:01:32;11.50;99.90
66422;DHT22;53228;51.380;0.098;2022-11-12T09:04:21;11.60;99.90
66422;DHT22;53228;51.380;0.098;2022-11-12T09:07:08;11.70;99.90
66422;DHT22;53228;51.380;0.098;2022-11-12T09:10:05;11.90;99.90
66422;DHT22;53228;51.380;0.098;2022-11-12T09:12:52;12.10;99.90
66422;DHT22;53228;51.380;0.098;2022-11-12T09:15:44;12.20;99.90
66422;DHT22;53228;51.380;0.098;2022-11-12T09:18:31;12.30;99.90
66422;DHT22;53228;51.380;0.098;2022-11-12T09:21:20;12.40;99.90
66422;DHT22;53228;51.380;0.098;2022-11-12T09:24:10;12.40;99.90
66422;DHT22;53228;51.380;0.098;2022-11-12T09:26:56;12.40;99.90
66422;DHT22;53228;51.380;0.098;2022-11-12T09:29:45;12.50;99.90
66422;DHT22;53228;51.380;0.098;2022-11-12T09:32:33;12.40;99.90
66422;DHT22;53228;51.380;0.098;2022-11-12T09:35:21;12.40;99.90
66422;DHT22;53228;51.380;0.098;2022-11-12T09:38:08;12.40;99.90
66422;DHT22;53228;51.380;0.098;2022-11-12T09:41:22;12.30;99.90
66422;DHT22;53228;51.380;0.098;2022-11-12T09:44:19;12.30;99.90
66422;DHT22;53228;51.380;0.098;2022-11-12T09:50:28;12.10;99.90
66422;DHT22;53228;51.380;0.098;2022-11-12T09:53:25;12.10;99.90
66422;DHT22;53228;51.380;0.098;2022-11-12T09:56:18;12.00;99.90
66422;DHT22;53228;51.380;0.098;2022-11-12T09:59:12;11.90;99.90
66422;DHT22;53228;51.380;0.098;2022-11-12T10:02:38;11.90;99.90
66422;DHT22;53228;51.380;0.098;2022-11-12T10:06:21;12.00;99.90
66422;DHT22;53228;51.380;0.098;2022-11-12T10:09:19;12.00;99.90
66422;DHT22;53228;51.380;0.098;2022-11-12T10:25:16;11.90;99.90
66422;DHT22;53228;51.380;0.098;2022-11-12T10:28:23;11.90;99.90
66422;DHT22;53228;51.380;0.098;2022-11-12T10:31:18;11.90;99.90
66422;DHT22;53228;51.380;0.098;2022-11-12T10:34:18;12.00;99.90
66422;DHT22;53228;51.380;0.098;2022-11-12T10:37:24;12.10;99.90
66422;DHT22;53228;51.380;0.098;2022-11-12T10:40:34;12.30;99.90
66422;DHT22;53228;51.380;0.098;2022-11-12T10:43:23;12.30;99.90
66422;DHT22;53228;51.380;0.098;2022-11-12T10:46:21;12.30;99.90
66422;DHT22;53228;51.380;0.098;2022-11-12T10:52:00;12.20;99.90
66422;DHT22;53228;51.380;0.098;2022-11-12T10:54:48;12.20;99.90
66422;DHT22;53228;51.380;0.098;2022-11-12T11:01:01;12.00;99.90
66422;DHT22;53228;51.380;0.098;2022-11-12T11:03:57;12.00;99.90
66422;DHT22;53228;51.380;0.098;2022-11-12T11:06:46;11.90;99.90
66422;DHT22;53228;51.380;0.098;2022-11-12T11:09:33;11.90;99.90
66422;DHT22;53228;51.380;0.098;2022-11-12T11:12:23;11.90;99.90
66422;DHT22;53228;51.380;0.098;2022-11-12T11:15:19;11.90;99.90
66422;DHT22;53228;51.380;0.098;2022-11-12T11:18:10;12.00;99.90
66422;DHT22;53228;51.380;0.098;2022-11-12T11:27:40;12.10;99.90
66422;DHT22;53228;51.380;0.098;2022-11-12T11:30:23;12.10;99.90
66422;DHT22;53228;51.380;0.098;2022-11-12T11:36:12;12.10;99.90
66422;DHT22;53228;51.380;0.098;2022-11-12T11:56:44;12.10;99.90
66422;DHT22;53228;51.380;0.098;2022-11-12T12:06:27;12.20;99.90
66422;DHT22;53228;51.380;0.098;2022-11-12T12:18:55;12.30;99.90
66422;DHT22;53228;51.380;0.098;2022-11-12T12:21:48;12.40;99.90
66422;DHT22;53228;51.380;0.098;2022-11-12T12:24:46;12.40;99.90
66422;DHT22;53228;51.380;0.098;2022-11-12T12:28:09;12.50;99.90
66422;DHT22;53228;51.380;0.098;2022-11-12T12:31:18;12.60;99.90
66422;DHT22;53228;51.380;0.098;2022-11-12T12:34:33;12.60;99.90
66422;DHT22;53228;51.380;0.098;2022-11-12T12:37:45;12.70;99.90
66422;DHT22;53228;51.380;0.098;2022-11-12T12:40:50;12.60;99.90
66422;DHT22;53228;51.380;0.098;2022-11-12T12:43:48;12.60;99.90
66422;DHT22;53228;51.380;0.098;2022-11-12T12:46:41;12.60;99.90
66422;DHT22;53228;51.380;0.098;2022-11-12T12:49:31;12.60;99.90
66422;DHT22;53228;51.380;0.098;2022-11-12T12:52:22;12.70;99.90
66422;DHT22;53228;51.380;0.098;2022-11-12T12:55:40;12.90;99.90
66422;DHT22;53228;51.380;0.098;2022-11-12T12:58:41;13.00;99.90
66422;DHT22;53228;51.380;0.098;2022-11-12T13:01:31;13.00;99.90
66422;DHT22;53228;51.380;0.098;2022-11-12T13:07:46;12.90;99.90
66422;DHT22;53228;51.380;0.098;2022-11-12T13:13:27;12.80;99.90
66422;DHT22;53228;51.380;0.098;2022-11-12T13:17:03;12.80;99.90
66422;DHT22;53228;51.380;0.098;2022-11-12T13:22:48;12.90;99.90
66422;DHT22;53228;51.380;0.098;2022-11-12T13:25:36;12.90;99.90
66422;DHT22;53228;51.380;0.098;2022-11-12T13:28:25;12.90;99.90
66422;DHT22;53228;51.380;0.098;2022-11-12T13:31:28;13.00;99.90
66422;DHT22;53228;51.380;0.098;2022-11-12T13:34:23;13.10;99.90
66422;DHT22;53228;51.380;0.098;2022-11-12T13:37:19;13.10;99.90
66422;DHT22;53228;51.380;0.098;2022-11-12T13:40:12;13.10;99.90
66422;DHT22;53228;51.380;0.098;2022-11-12T13:49:12;13.10;99.90
66422;DHT22;53228;51.380;0.098;2022-11-12T13:52:04;13.00;99.90
66422;DHT22;53228;51.380;0.098;2022-11-12T13:55:14;12.90;99.90
66422;DHT22;53228;51.380;0.098;2022-11-12T13:58:00;12.80;99.90
66422;DHT22;53228;51.380;0.098;2022-11-12T14:00:53;12.70;99.90
66422;DHT22;53228;51.380;0.098;2022-11-12T14:03:48;12.70;99.90
66422;DHT22;53228;51.380;0.098;2022-11-12T14:06:42;12.70;99.90
66422;DHT22;53228;51.380;0.098;2022-11-12T14:22:20;12.50;99.90
66422;DHT22;53228;51.380;0.098;2022-11-12T14:25:17;12.50;99.90
66422;DHT22;53228;51.380;0.098;2022-11-12T14:28:21;12.50;99.90
66422;DHT22;53228;51.380;0.098;2022-11-12T14:31:14;12.50;99.90
66422;DHT22;53228;51.380;0.098;2022-11-12T14:37:37;12.60;99.90
66422;DHT22;53228;51.380;0.098;2022-11-12T14:40:31;12.60;99.90
66422;DHT22;53228;51.380;0.098;2022-11-12T14:43:32;12.60;99.90
66422;DHT22;53228;51.380;0.098;2022-11-12T14:46:26;12.60;99.90
66422;DHT22;53228;51.380;0.098;2022-11-12T14:52:33;12.60;99.90
66422;DHT22;53228;51.380;0.098;2022-11-12T14:55:26;12.60;99.90
66422;DHT22;53228;51.380;0.098;2022-11-12T14:58:14;12.60;99.90
66422;DHT22;53228;51.380;0.098;2022-11-12T15:04:24;12.60;99.90
66422;DHT22;53228;51.380;0.098;2022-11-12T15:13:22;12.60;99.90
66422;DHT22;53228;51.380;0.098;2022-11-12T15:16:22;12.60;99.90
66422;DHT22;53228;51.380;0.098;2022-11-12T15:22:21;12.60;99.90
66422;DHT22;53228;51.380;0.098;2022-11-12T15:25:29;12.70;99.90
66422;DHT22;53228;51.380;0.098;2022-11-12T15:28:24;12.70;99.90
66422;DHT22;53228;51.380;0.098;2022-11-12T15:31:22;12.60;99.90
66422;DHT22;53228;51.380;0.098;2022-11-12T15:34:24;12.60;99.90
66422;DHT22;53228;51.380;0.098;2022-11-12T15:40:11;12.50;99.90
66422;DHT22;53228;51.380;0.098;2022-11-12T15:43:01;12.40;99.90
66422;DHT22;53228;51.380;0.098;2022-11-12T15:45:52;12.40;99.90
66422;DHT22;53228;51.380;0.098;2022-11-12T15:48:40;12.30;99.90
66422;DHT22;53228;51.380;0.098;2022-11-12T15:51:29;12.30;99.90
66422;DHT22;53228;51.380;0.098;2022-11-12T15:54:20;12.30;99.90
66422;DHT22;53228;51.380;0.098;2022-11-12T15:57:34;12.30;99.90
66422;DHT22;53228;51.380;0.098;2022-11-12T16:00:20;12.20;99.90
66422;DHT22;53228;51.380;0.098;2022-11-12T16:03:14;12.10;99.90
66422;DHT22;53228;51.380;0.098;2022-11-12T16:06:03;12.10;99.90
66422;DHT22;53228;51.380;0.098;2022-11-12T16:08:54;12.00;99.90
66422;DHT22;53228;51.380;0.098;2022-11-12T16:11:41;11.90;99.90
66422;DHT22;53228;51.380;0.098;2022-11-12T16:14:28;11.80;99.90
66422;DHT22;53228;51.380;0.098;2022-11-12T16:17:20;11.70;99.90
66422;DHT22;53228;51.380;0.098;2022-11-12T16:23:10;11.50;99.90
66422;DHT22;53228;51.380;0.098;2022-11-12T16:25:57;11.50;99.90
66422;DHT22;53228;51.380;0.098;2022-11-12T16:28:44;11.40;99.90
66422;DHT22;53228;51.380;0.098;2022-11-12T16:31:30;11.40;99.90
66422;DHT22;53228;51.380;0.098;2022-11-12T16:34:17;11.30;99.90
66422;DHT22;53228;51.380;0.098;2022-11-12T16:37:10;11.20;99.90
66422;DHT22;53228;51.380;0.098;2022-11-12T16:40:05;11.20;99.90
66422;DHT22;53228;51.380;0.098;2022-11-12T16:42:54;11.20;99.90
66422;DHT22;53228;51.380;0.098;2022-11-12T16:45:41;11.20;99.90
66422;DHT22;53228;51.380;0.098;2022-11-12T16:48:31;11.30;99.90
66422;DHT22;53228;51.380;0.098;2022-11-12T16:51:23;11.30;99.90
66422;DHT22;53228;51.380;0.098;2022-11-12T16:54:12;11.30;99.90
66422;DHT22;53228;51.380;0.098;2022-11-12T16:56:58;11.30;99.90
66422;DHT22;53228;51.380;0.098;2022-11-12T16:59:45;11.30;99.90
66422;DHT22;53228;51.380;0.098;2022-11-12T17:02:31;11.20;99.90
66422;DHT22;53228;51.380;0.098;2022-11-12T17:05:32;11.20;99.90
66422;DHT22;53228;51.380;0.098;2022-11-12T17:08:22;11.30;99.90
66422;DHT22;53228;51.380;0.098;2022-11-12T17:11:08;11.30;99.90
66422;DHT22;53228;51.380;0.098;2022-11-12T17:13:57;11.40;99.90
66422;DHT22;53228;51.380;0.098;2022-11-12T17:16:44;11.60;99.90
66422;DHT22;53228;51.380;0.098;2022-11-12T17:19:33;11.70;99.90
66422;DHT22;53228;51.380;0.098;2022-11-12T17:22:20;11.80;99.90
66422;DHT22;53228;51.380;0.098;2022-11-12T17:25:07;11.80;99.90
66422;DHT22;53228;51.380;0.098;2022-11-12T17:27:56;11.90;99.90
66422;DHT22;53228;51.380;0.098;2022-11-12T17:30:42;11.90;99.90
66422;DHT22;53228;51.380;0.098;2022-11-12T17:33:29;11.90;99.90
66422;DHT22;53228;51.380;0.098;2022-11-12T17:36:25;11.90;99.90
66422;DHT22;53228;51.380;0.098;2022-11-12T17:39:14;11.80;99.90
66422;DHT22;53228;51.380;0.098;2022-11-12T17:42:01;11.80;99.90
66422;DHT22;53228;51.380;0.098;2022-11-12T17:44:49;11.80;99.90
66422;DHT22;53228;51.380;0.098;2022-11-12T17:47:36;11.80;99.90
66422;DHT22;53228;51.380;0.098;2022-11-12T17:50:27;11.90;99.90
66422;DHT22;53228;51.380;0.098;2022-11-12T17:53:14;11.90;99.90
66422;DHT22;53228;51.380;0.098;2022-11-12T17:56:00;11.90;99.90
66422;DHT22;53228;51.380;0.098;2022-11-12T17:58:52;11.90;99.90
66422;DHT22;53228;51.380;0.098;2022-11-12T18:01:39;12.00;99.90
66422;DHT22;53228;51.380;0.098;2022-11-12T18:04:26;12.00;99.90
66422;DHT22;53228;51.380;0.098;2022-11-12T18:07:16;12.00;99.90
66422;DHT22;53228;51.380;0.098;2022-11-12T18:10:04;12.00;99.90
66422;DHT22;53228;51.380;0.098;2022-11-12T18:12:50;12.10;99.90
66422;DHT22;53228;51.380;0.098;2022-11-12T18:15:37;12.10;99.90
66422;DHT22;53228;51.380;0.098;2022-11-12T18:18:24;12.10;99.90
66422;DHT22;53228;51.380;0.098;2022-11-12T18:21:13;12.10;99.90
66422;DHT22;53228;51.380;0.098;2022-11-12T18:23:59;12.10;99.90
66422;DHT22;53228;51.380;0.098;2022-11-12T18:26:45;12.10;99.90
66422;DHT22;53228;51.380;0.098;2022-11-12T18:29:35;12.10;99.90
66422;DHT22;53228;51.380;0.098;2022-11-12T18:32:21;12.10;99.90
66422;DHT22;53228;51.380;0.098;2022-11-12T18:35:10;12.00;99.90
66422;DHT22;53228;51.380;0.098;2022-11-12T18:37:56;12.00;99.90
66422;DHT22;53228;51.380;0.098;2022-11-12T18:40:45;12.00;99.90
66422;DHT22;53228;51.380;0.098;2022-11-12T18:43:35;12.00;99.90
66422;DHT22;53228;51.380;0.098;2022-11-12T18:46:27;12.00;99.90
66422;DHT22;53228;51.380;0.098;2022-11-12T18:49:16;11.90;99.90
66422;DHT22;53228;51.380;0.098;2022-11-12T18:52:04;11.90;99.90
66422;DHT22;53228;51.380;0.098;2022-11-12T18:54:55;11.90;99.90
66422;DHT22;53228;51.380;0.098;2022-11-12T18:57:44;11.90;99.90
66422;DHT22;53228;51.380;0.098;2022-11-12T19:00:32;11.90;99.90
66422;DHT22;53228;51.380;0.098;2022-11-12T19:03:18;11.90;99.90
66422;DHT22;53228;51.380;0.098;2022-11-12T19:06:07;11.80;99.90
66422;DHT22;53228;51.380;0.098;2022-11-12T19:09:01;11.80;99.90
66422;DHT22;53228;51.380;0.098;2022-11-12T19:11:48;11.80;99.90
66422;DHT22;53228;51.380;0.098;2022-11-12T19:14:35;11.90;99.90
66422;DHT22;53228;51.380;0.098;2022-11-12T19:17:22;11.90;99.90
66422;DHT22;53228;51.380;0.098;2022-11-12T19:20:18;12.00;99.90
66422;DHT22;53228;51.380;0.098;2022-11-12T19:23:05;12.00;99.90
66422;DHT22;53228;51.380;0.098;2022-11-12T19:25:54;12.10;99.90
66422;DHT22;53228;51.380;0.098;2022-11-12T19:28:46;12.10;99.90
66422;DHT22;53228;51.380;0.098;2022-11-12T19:31:34;12.10;99.90
66422;DHT22;53228;51.380;0.098;2022-11-12T19:34:25;12.10;99.90
66422;DHT22;53228;51.380;0.098;2022-11-12T19:37:13;12.20;99.90
66422;DHT22;53228;51.380;0.098;2022-11-12T19:40:22;12.20;99.90
66422;DHT22;53228;51.380;0.098;2022-11-12T19:43:08;12.20;99.90
66422;DHT22;53228;51.380;0.098;2022-11-12T19:45:54;12.20;99.90
66422;DHT22;53228;51.380;0.098;2022-11-12T19:48:41;12.20;99.90
66422;DHT22;53228;51.380;0.098;2022-11-12T19:51:29;12.20;99.90
66422;DHT22;53228;51.380;0.098;2022-11-12T19:54:16;12.20;99.90
66422;DHT22;53228;51.380;0.098;2022-11-12T19:57:04;12.20;99.90
66422;DHT22;53228;51.380;0.098;2022-11-12T19:59:51;12.20;99.90
66422;DHT22;53228;51.380;0.098;2022-11-12T20:02:42;12.10;99.90